METAR AND TAF INFORMATION
METAR FOR LFRS
ADDS - METARS form results

(1511 UTC 22 May 2019)
Data provider http://aviationweather.gov/metar/data/
 
METAR text: LFRS 221500Z AUTO 26007KT 200V290 CAVOK 22/12 Q1019 NOSIG
Conditions at: LFRS (NANTES/CHATEAU B, FR) observed 1500 UTC 22 May 2019
Temperature: 22.0°C (72°F)
Dewpoint: 12.0°C (54°F) [RH = 53%]
Pressure (altimeter): 30.09 inches Hg (1019.0 mb)
Winds: from the W (260 degrees) at 8 MPH (7 knots; 3.6 m/s)
Visibility: 6 or more miles (10+ km)
Ceiling: ceiling and visibility are OK
Clouds: unknown
Weather: no significant weather observed at this time

METAR text: LFRS 221430Z AUTO 26006KT 230V290 CAVOK 23/11 Q1019 NOSIG
Conditions at: LFRS (NANTES/CHATEAU B, FR) observed 1430 UTC 22 May 2019
Temperature: 23.0°C (73°F)
Dewpoint: 11.0°C (52°F) [RH = 47%]
Pressure (altimeter): 30.09 inches Hg (1019.0 mb)
Winds: from the W (260 degrees) at 7 MPH (6 knots; 3.1 m/s)
Visibility: 6 or more miles (10+ km)
Ceiling: ceiling and visibility are OK
Clouds: unknown
Weather: no significant weather observed at this time

Forecast for: LFRS (NANTES/CHATEAU B, FR)
Text: TAF LFRS 221100Z 2212/2318 VRB03KT CAVOK
Forecast period: 1200 UTC 22 May 2019 to 1300 UTC 23 May 2019
Forecast type: FROM: standard forecast or significant change
Winds: variable direction winds at 3 MPH (3 knots; 1.5 m/s)
Visibility: 6 or more miles 10+ km)
Ceiling: unknown
Clouds: missing
Weather: NSW  (no significant weather)
Text: PROB30
Forecast period: 0300 to 0600 UTC 23 May 2019
Forecast type: TEMPORARY: The following changes expected for less than half the time period
Visibility: 0.50 miles (0.80 km)
Ceiling: unknown
Clouds: missing
Weather: FG  (fog)
Text: TEMPO 2303/2306 0800 FG
Forecast period: 1300 to 1800 UTC 23 May 2019
Forecast type: BECOMING: Conditions expected to become as follows by 1500 UTC 23 May 2019
Winds: from the W (280 degrees) at 12 MPH (10 knots; 5.1 m/s)
Visibility: 6 or more miles 10+ km)
Ceiling: unknown
Clouds: missing
Weather: NSW  (no significant weather)

 AIRPORT MAP

 RUNWAY INFORMATION
Runway 03 Runway length 9514 ft Runway width 148 ft
Runway elevation 73 ft Runway displaced threshold 0 ft Runway heading 28
Runway 21 Runway length 9514 ft Runway width 148 ft
Runway elevation 86 ft Runway displaced threshold 694 ft Runway heading 208

 AIRPORT FREQUENCIES
Type APP Name APP Frequency 130.275 MHZ
Type ATIS Name ATIS Frequency 126.925 MHZ
Type GND Name GND Frequency 121.875 MHZ
Type INFO Name INFO Frequency 129.875 MHZ
Type TWR Name TWR Frequency 118.65 MHZ

 AIRPORT NEAR NAVIGATION AIDS
Type NDB Name Nantes Frequency 369 KHZ
Type VOR-DME Name Nantes Frequency 115500 KHZ



Powered by Virtual Airlines Manager [v2.6.2]